Time;durP1;ratioP1;P1;durP2;ratioP2;P2;SDS_P1;SDS_P2;PMS_P1;PMS_P2;Temp;Humidity;BMP_temperature;BMP_pressure;BME280_temperature;BME280_humidity;BME280_pressure;Samples;Min_cycle;Max_cycle;Signal;HPM_P1;HPM_P2
2021/08/02 00:01:47;;;;;;;25.05;18.48;;;;;;;23.73;68.74;96608.47;4980301;28;19925;-71
2021/08/02 00:04:18;;;;;;;20.98;17.92;;;;;;;23.56;69.18;96595.88;5003883;28;20054;-71
2021/08/02 00:06:57;;;;;;;26.52;18.25;;;;;;;23.51;69.36;96606.97;5002069;28;20046;-71
2021/08/02 00:09:31;;;;;;;25.40;17.88;;;;;;;23.52;69.62;96608.59;5001876;28;20421;-69
2021/08/02 00:12:02;;;;;;;21.58;17.85;;;;;;;22.97;69.93;96516.31;5002045;28;20062;-69
2021/08/02 00:14:30;;;;;;;27.10;18.60;;;;;;;23.55;69.66;96599.16;5002322;28;20062;-68
2021/08/02 00:16:57;;;;;;;23.30;17.02;;;;;;;23.58;68.97;96596.16;5006446;28;20053;-69
2021/08/02 00:19:25;;;;;;;20.80;17.60;;;;;;;23.62;68.80;96596.03;5005293;28;20054;-69
2021/08/02 00:21:52;;;;;;;24.55;16.98;;;;;;;22.90;69.54;96505.28;5006585;28;20065;-69
2021/08/02 00:24:21;;;;;;;20.10;17.55;;;;;;;21.41;70.33;96295.00;5005125;28;20586;-70
2021/08/02 00:26:48;;;;;;;21.85;18.15;;;;;;;23.39;70.22;96600.22;5006876;28;20051;-70
2021/08/02 00:29:16;;;;;;;21.88;17.30;;;;;;;23.41;69.93;96608.22;5007184;28;20069;-70
2021/08/02 00:31:43;;;;;;;21.13;17.42;;;;;;;23.33;70.49;96595.63;5004646;28;20136;-70
2021/08/02 00:34:10;;;;;;;25.33;16.92;;;;;;;22.94;70.26;96537.00;5006113;28;20598;-70
2021/08/02 00:36:42;;;;;;;22.60;17.75;;;;;;;23.07;71.45;96589.34;5004417;28;20066;-68
2021/08/02 00:39:31;;;;;;;26.30;17.25;;;;;;;23.24;70.48;96587.06;5004932;28;20105;-69
2021/08/02 00:42:18;;;;;;;26.23;18.15;;;;;;;23.12;71.18;96585.94;5006000;28;20136;-70
2021/08/02 00:45:00;;;;;;;21.42;18.27;;;;;;;23.13;71.32;96581.03;5004783;28;20460;-71
2021/08/02 00:47:32;;;;;;;24.30;16.60;;;;;;;23.04;71.81;96583.81;5004540;28;20056;-70
2021/08/02 00:50:09;;;;;;;24.63;17.58;;;;;;;22.95;72.13;96584.56;5005113;28;20049;-71
2021/08/02 00:52:42;;;;;;;23.27;17.13;;;;;;;22.76;71.51;96529.25;5004656;28;20055;-70
2021/08/02 00:55:09;;;;;;;22.42;18.35;;;;;;;22.99;72.40;96575.94;5004332;28;20516;-71
2021/08/02 00:57:37;;;;;;;24.38;17.60;;;;;;;22.96;72.00;96579.69;5004008;28;20076;-69
2021/08/02 01:00:08;;;;;;;25.40;16.70;;;;;;;22.96;71.88;96591.00;5004368;28;20062;-70
2021/08/02 01:02:41;;;;;;;23.45;17.42;;;;;;;22.84;72.08;96591.88;5005242;28;20194;-70
2021/08/02 01:05:11;;;;;;;22.83;18.60;;;;;;;22.80;72.71;96586.38;5005691;28;20143;-72
2021/08/02 01:07:44;;;;;;;24.98;19.98;;;;;;;22.85;72.74;96593.44;5004797;28;20061;-70
2021/08/02 01:10:12;;;;;;;28.10;22.67;;;;;;;22.81;73.28;96587.16;5005999;28;20062;-70
2021/08/02 01:12:43;;;;;;;29.67;22.45;;;;;;;22.71;74.28;96588.34;5004500;28;20080;-70
2021/08/02 01:15:10;;;;;;;23.73;21.33;;;;;;;22.29;76.55;96591.47;5003907;28;20136;-69
2021/08/02 01:17:37;;;;;;;32.92;26.40;;;;;;;22.00;79.18;96604.22;5005478;28;20058;-70
2021/08/02 01:20:05;;;;;;;33.47;25.73;;;;;;;22.05;79.32;96603.66;5005664;28;20053;-70
2021/08/02 01:22:32;;;;;;;37.97;25.42;;;;;;;21.79;78.96;96523.97;5006038;28;20493;-71
2021/08/02 01:25:48;;;;;;;28.17;23.77;;;;;;;22.33;77.66;96572.38;5004723;28;20061;-71
2021/08/02 01:28:15;;;;;;;29.35;20.45;;;;;;;22.32;76.13;96584.09;5008814;28;20132;-72
2021/08/02 01:30:46;;;;;;;26.98;18.15;;;;;;;22.31;75.55;96605.91;5004385;28;20481;-70
2021/08/02 01:33:14;;;;;;;26.50;18.38;;;;;;;22.38;74.73;96588.72;5004230;28;20058;-71
2021/08/02 01:35:42;;;;;;;20.40;17.90;;;;;;;22.36;75.22;96579.94;5005151;28;20133;-71
2021/08/02 01:38:11;;;;;;;21.25;18.33;;;;;;;22.40;74.84;96586.22;5004183;28;20085;-70
2021/08/02 01:40:38;;;;;;;23.88;17.75;;;;;;;22.15;75.33;96558.13;5004670;28;20435;-71
2021/08/02 01:43:06;;;;;;;21.45;17.15;;;;;;;22.35;74.81;96588.88;5003957;28;20061;-69
2021/08/02 01:46:00;;;;;;;22.92;17.55;;;;;;;22.07;75.08;96537.06;5004041;28;20050;-70
2021/08/02 01:48:48;;;;;;;26.67;18.08;;;;;;;22.34;74.98;96579.59;4996785;28;20147;-70
2021/08/02 01:51:15;;;;;;;24.80;18.23;;;;;;;22.41;74.43;96593.44;5003271;28;20056;-70
2021/08/02 01:53:50;;;;;;;26.48;19.60;;;;;;;21.84;75.84;96545.94;5005394;28;20050;-70
2021/08/02 01:56:30;;;;;;;24.08;19.63;;;;;;;22.12;76.51;96581.59;5004758;28;20068;-67
2021/08/02 01:59:22;;;;;;;29.52;20.77;;;;;;;22.17;76.59;96588.69;5005331;28;20066;-70
2021/08/02 02:01:59;;;;;;;23.95;20.55;;;;;;;21.82;76.23;96539.97;4998890;28;20136;-70
2021/08/02 02:04:30;;;;;;;30.27;22.23;;;;;;;21.44;78.98;96542.06;5004847;28;20599;-71
2021/08/02 02:07:00;;;;;;;26.77;20.77;;;;;;;21.87;78.62;96576.06;5003006;28;20149;-71
2021/08/02 02:09:30;;;;;;;27.88;21.92;;;;;;;21.99;78.41;96589.31;5003265;28;20540;-70
2021/08/02 02:12:01;;;;;;;30.00;18.80;;;;;;;21.57;76.76;96513.84;5003131;28;20058;-69
2021/08/02 02:14:33;;;;;;;28.33;18.10;;;;;;;21.81;77.51;96569.44;5003089;28;20054;-68
2021/08/02 02:17:02;;;;;;;22.88;17.98;;;;;;;21.73;76.71;96559.59;5001072;28;20141;-70
2021/08/02 02:19:30;;;;;;;26.55;20.23;;;;;;;21.45;76.64;96509.81;5005110;28;20594;-70
2021/08/02 02:21:58;;;;;;;23.75;18.02;;;;;;;21.75;76.10;96554.31;5003037;28;20145;-70
2021/08/02 02:24:25;;;;;;;25.30;18.30;;;;;;;21.81;77.10;96589.16;5003158;28;20057;-69
2021/08/02 02:26:54;;;;;;;23.63;17.83;;;;;;;21.86;77.30;96597.03;5002368;28;20076;-70
2021/08/02 02:29:22;;;;;;;26.90;18.80;;;;;;;21.88;76.99;96576.81;5002790;28;20076;-70
2021/08/02 02:31:49;;;;;;;25.05;18.27;;;;;;;21.76;76.25;96555.91;5002879;28;20061;-70
2021/08/02 02:34:17;;;;;;;23.90;19.65;;;;;;;21.98;77.15;96587.75;5004004;28;20056;-70
2021/08/02 02:36:45;;;;;;;27.13;20.25;;;;;;;22.11;76.76;96580.03;5004325;28;20406;-70
2021/08/02 02:39:13;;;;;;;22.88;19.85;;;;;;;21.78;76.74;96553.38;5002456;28;20054;-71
2021/08/02 02:41:41;;;;;;;25.33;19.08;;;;;;;22.04;76.59;96590.78;5002926;28;20595;-70
2021/08/02 02:44:08;;;;;;;26.38;20.35;;;;;;;21.94;77.37;96598.38;5004195;28;20583;-70
2021/08/02 02:46:36;;;;;;;24.95;19.90;;;;;;;21.87;77.88;96595.81;5003636;28;20049;-70
2021/08/02 02:49:03;;;;;;;50.42;23.23;;;;;;;21.88;77.90;96577.63;5003954;28;20062;-70
2021/08/02 02:51:31;;;;;;;24.67;17.55;;;;;;;22.00;76.84;96602.16;5003657;28;20050;-69
2021/08/02 02:53:59;;;;;;;20.08;17.17;;;;;;;21.88;77.29;96605.81;5002533;28;20061;-70
2021/08/02 02:56:29;;;;;;;26.65;18.42;;;;;;;21.84;77.32;96599.53;5002212;28;20095;-69
2021/08/02 02:58:56;;;;;;;20.65;18.48;;;;;;;21.82;77.62;96604.84;5002825;28;20054;-71
2021/08/02 03:01:28;;;;;;;24.45;18.90;;;;;;;21.71;77.42;96590.28;5002438;28;20064;-70
2021/08/02 03:03:59;;;;;;;27.38;20.33;;;;;;;21.40;77.25;96538.59;5002589;28;20145;-71
2021/08/02 03:06:28;;;;;;;42.95;21.83;;;;;;;21.55;76.77;96555.78;5002187;28;20069;-71
2021/08/02 03:08:56;;;;;;;33.22;20.30;;;;;;;21.62;77.53;96581.72;5002369;28;20061;-70
2021/08/02 03:11:23;;;;;;;28.33;19.30;;;;;;;21.80;77.61;96610.13;5002485;28;20050;-71
2021/08/02 03:13:50;;;;;;;28.55;20.20;;;;;;;21.64;78.42;96604.59;5004470;28;20052;-70
2021/08/02 03:16:21;;;;;;;27.55;19.83;;;;;;;21.66;78.06;96604.94;5003903;28;20062;-69
2021/08/02 03:18:48;;;;;;;26.80;18.85;;;;;;;21.41;78.00;96562.69;5002511;28;20053;-71
2021/08/02 03:21:16;;;;;;;25.98;19.33;;;;;;;21.32;78.48;96545.69;5002314;28;20068;-71
2021/08/02 03:24:13;;;;;;;20.92;17.80;;;;;;;21.67;78.11;96598.06;5003835;28;20064;-72
2021/08/02 03:26:41;;;;;;;25.40;17.42;;;;;;;21.75;77.36;96598.63;5003933;28;20164;-71
2021/08/02 03:29:16;;;;;;;23.17;17.60;;;;;;;21.73;77.48;96604.72;5003623;28;20168;-71
2021/08/02 03:31:50;;;;;;;23.15;18.02;;;;;;;20.13;77.38;96515.56;5002039;28;20068;-71
2021/08/02 03:34:25;;;;;;;20.10;17.17;;;;;;;21.81;76.50;96623.00;5002629;28;20081;-70
2021/08/02 03:36:53;;;;;;;23.23;17.98;;;;;;;21.46;76.87;96579.03;5001991;28;20054;-70
2021/08/02 03:39:23;;;;;;;26.17;18.27;;;;;;;21.51;77.19;96575.66;5002299;28;20062;-70
2021/08/02 03:41:52;;;;;;;29.50;18.17;;;;;;;21.86;76.62;96625.22;5000526;28;20057;-69
2021/08/02 03:44:20;;;;;;;24.58;17.85;;;;;;;21.91;76.20;96621.84;5001877;28;20085;-69
2021/08/02 03:46:47;;;;;;;22.35;17.40;;;;;;;21.75;75.88;96579.69;5001401;28;20068;-69
2021/08/02 03:49:14;;;;;;;24.52;18.00;;;;;;;21.97;76.74;96622.84;5002241;28;20060;-69
2021/08/02 03:51:57;;;;;;;22.92;17.38;;;;;;;22.18;75.31;96622.09;5005861;28;20340;-69
2021/08/02 03:54:26;;;;;;;25.40;19.55;;;;;;;22.04;76.73;96625.41;5007367;28;20042;-69
2021/08/02 03:56:54;;;;;;;26.90;19.83;;;;;;;21.73;76.31;96582.16;5007404;28;20065;-71
2021/08/02 03:59:23;;;;;;;24.65;20.10;;;;;;;22.01;75.80;96569.91;5007419;28;20046;-69
2021/08/02 04:01:50;;;;;;;21.48;18.08;;;;;;;22.41;74.56;96599.06;5005607;28;20064;-69
2021/08/02 04:04:17;;;;;;;28.52;19.17;;;;;;;22.22;74.09;96560.66;5005775;28;20145;-72
2021/08/02 04:06:43;;;;;;;27.05;19.05;;;;;;;21.82;75.14;96520.22;5005672;28;20060;-71
2021/08/02 04:09:12;;;;;;;25.83;19.60;;;;;;;22.24;75.89;96623.09;5005248;28;20068;-74
2021/08/02 04:11:40;;;;;;;27.67;20.42;;;;;;;22.41;75.49;96606.78;5007162;28;20152;-73
2021/08/02 04:14:07;;;;;;;30.60;21.17;;;;;;;22.08;74.94;96560.41;5005376;28;20054;-73
2021/08/02 04:16:35;;;;;;;27.98;20.10;;;;;;;22.64;74.16;96605.53;5005339;28;20076;-70
2021/08/02 04:19:02;;;;;;;25.08;20.27;;;;;;;22.56;73.91;96592.97;5005453;28;20060;-74
2021/08/02 04:21:29;;;;;;;28.48;20.98;;;;;;;22.75;73.04;96606.72;5006670;28;20144;-72
2021/08/02 04:23:56;;;;;;;31.33;20.05;;;;;;;22.88;72.95;96615.13;5006780;28;20062;-73
2021/08/02 04:26:23;;;;;;;23.92;18.13;;;;;;;22.60;72.44;96583.13;5005263;28;20065;-70
2021/08/02 04:28:55;;;;;;;24.25;17.55;;;;;;;23.07;71.76;96614.78;5006555;28;20050;-72
2021/08/02 04:31:27;;;;;;;27.40;17.02;;;;;;;23.25;71.21;96619.75;5006822;28;20068;-71
2021/08/02 04:33:55;;;;;;;27.33;19.67;;;;;;;23.41;70.38;96630.84;5006274;28;20069;-69
2021/08/02 04:36:23;;;;;;;22.35;18.23;;;;;;;23.55;69.55;96618.97;5007148;28;20057;-69
2021/08/02 04:38:50;;;;;;;21.67;17.85;;;;;;;23.62;69.37;96618.66;5006478;28;20054;-71
2021/08/02 04:41:17;;;;;;;27.13;18.17;;;;;;;23.78;68.85;96609.91;5007218;28;20084;-71
2021/08/02 04:43:44;;;;;;;28.70;17.50;;;;;;;23.49;67.77;96548.06;5005094;28;20144;-69
2021/08/02 04:46:10;;;;;;;24.50;15.77;;;;;;;24.03;67.41;96625.88;5006260;28;20364;-69
2021/08/02 04:48:37;;;;;;;25.92;16.73;;;;;;;23.97;67.25;96634.19;5004943;28;20544;-70
2021/08/02 04:51:04;;;;;;;24.02;16.77;;;;;;;24.09;67.23;96619.09;5004499;28;20440;-71
2021/08/02 04:53:31;;;;;;;28.02;19.73;;;;;;;24.33;66.77;96611.59;5005356;28;20060;-69
2021/08/02 04:55:57;;;;;;;28.88;16.95;;;;;;;24.51;66.46;96620.09;5006024;28;20069;-69
2021/08/02 04:58:24;;;;;;;21.17;17.42;;;;;;;24.62;65.69;96611.91;5006215;28;20060;-69
2021/08/02 05:00:51;;;;;;;24.92;17.73;;;;;;;24.79;65.29;96613.16;5004355;28;20080;-69
2021/08/02 05:03:18;;;;;;;19.92;16.25;;;;;;;25.01;64.00;96622.25;5006784;28;20054;-69
2021/08/02 05:05:48;;;;;;;22.52;16.23;;;;;;;24.95;63.64;96595.81;5004633;28;20061;-70
2021/08/02 05:08:15;;;;;;;26.83;16.73;;;;;;;25.27;63.56;96617.00;5006384;28;20046;-69
2021/08/02 05:10:42;;;;;;;29.48;16.27;;;;;;;25.19;62.83;96565.53;5004946;28;20057;-69
2021/08/02 05:13:08;;;;;;;29.70;17.92;;;;;;;25.44;61.52;96580.56;5006194;28;20053;-68
2021/08/02 05:15:35;;;;;;;30.33;17.40;;;;;;;25.76;61.02;96602.47;5005561;28;20054;-69
2021/08/02 05:18:02;;;;;;;36.10;18.55;;;;;;;25.88;60.76;96607.13;5004354;28;20527;-69
2021/08/02 05:20:29;;;;;;;24.23;17.52;;;;;;;26.03;60.16;96602.34;5004113;28;20080;-69
2021/08/02 05:22:56;;;;;;;35.65;17.08;;;;;;;26.12;59.61;96607.94;5004049;28;20061;-68
2021/08/02 05:25:22;;;;;;;25.48;16.27;;;;;;;26.17;58.72;96610.13;5004140;28;20437;-71
2021/08/02 05:27:51;;;;;;;27.70;16.33;;;;;;;26.37;58.72;96607.44;5003829;28;20068;-74
2021/08/02 05:30:19;;;;;;;28.00;17.50;;;;;;;26.14;60.55;96594.06;5003609;28;20061;-72
2021/08/02 05:32:46;;;;;;;24.75;18.83;;;;;;;26.21;59.83;96579.47;5004520;28;20137;-69
2021/08/02 05:35:14;;;;;;;32.58;20.08;;;;;;;26.63;59.02;96603.63;5005704;28;20577;-72
2021/08/02 05:37:41;;;;;;;26.67;18.95;;;;;;;26.82;57.31;96609.94;5005482;28;20054;-71
2021/08/02 05:40:08;;;;;;;23.92;19.42;;;;;;;26.72;57.59;96577.19;5004793;28;20058;-72
2021/08/02 05:42:35;;;;;;;25.77;19.17;;;;;;;26.98;57.28;96609.47;5005057;28;20112;-71
2021/08/02 05:45:04;;;;;;;32.13;19.33;;;;;;;24.30;56.92;96202.03;5000312;28;20123;-69
2021/08/02 05:47:39;;;;;;;23.67;18.10;;;;;;;26.99;56.58;96551.31;5000379;28;20050;-65
2021/08/02 05:50:07;;;;;;;26.60;18.67;;;;;;;25.82;55.08;96345.91;4996195;28;20144;-62
2021/08/02 05:52:34;;;;;;;23.05;17.52;;;;;;;27.42;54.32;96590.38;4997059;28;20072;-63
2021/08/02 05:55:02;;;;;;;29.25;18.92;;;;;;;28.00;53.10;96607.31;5017271;28;20447;-62
2021/08/02 05:57:28;;;;;;;25.23;16.88;;;;;;;26.29;52.21;96328.72;5018821;28;20115;-64
2021/08/02 05:59:55;;;;;;;25.63;16.27;;;;;;;28.27;51.97;96608.19;4989748;28;20077;-61
2021/08/02 06:02:22;;;;;;;22.83;17.60;;;;;;;28.51;51.52;96606.75;4999763;28;20065;-62
2021/08/02 06:04:49;;;;;;;25.67;17.70;;;;;;;28.32;52.33;96573.28;4989896;28;20538;-62
2021/08/02 06:07:16;;;;;;;25.85;16.48;;;;;;;28.58;52.16;96611.22;4992636;28;20131;-63
2021/08/02 06:09:43;;;;;;;27.73;16.42;;;;;;;27.09;51.74;96350.09;4985990;28;20064;-63
2021/08/02 06:12:10;;;;;;;22.40;16.08;;;;;;;28.15;54.45;96602.34;4982895;28;20050;-66
2021/08/02 06:14:37;;;;;;;23.98;15.38;;;;;;;28.31;53.43;96603.06;4982901;28;20046;-62
2021/08/02 06:17:04;;;;;;;42.33;17.17;;;;;;;28.55;52.38;96590.19;4984352;28;20073;-63
2021/08/02 06:19:31;;;;;;;25.00;16.05;;;;;;;28.85;52.74;96602.22;4986311;28;20053;-60
2021/08/02 06:21:58;;;;;;;28.15;15.75;;;;;;;28.53;49.54;96547.16;4999453;28;20050;-61
2021/08/02 06:24:25;;;;;;;24.88;17.35;;;;;;;28.92;49.36;96598.91;4999561;28;20093;-67
2021/08/02 06:26:52;;;;;;;22.85;14.73;;;;;;;29.23;48.96;96593.25;4996414;28;20382;-66
2021/08/02 06:29:18;;;;;;;23.13;13.27;;;;;;;29.25;47.53;96594.34;4991195;28;20172;-67
2021/08/02 06:31:45;;;;;;;23.38;14.65;;;;;;;29.39;46.74;96596.28;4990485;28;21303;-64
2021/08/02 06:34:12;;;;;;;23.58;14.25;;;;;;;29.38;46.47;96573.94;4996521;28;20052;-63
2021/08/02 06:36:39;;;;;;;21.25;14.07;;;;;;;29.77;45.92;96600.75;4998872;28;20072;-65
2021/08/02 06:39:05;;;;;;;27.15;14.57;;;;;;;29.68;45.57;96546.69;5002032;28;20069;-68
2021/08/02 06:41:32;;;;;;;25.55;14.25;;;;;;;30.15;45.74;96585.94;4996970;28;20057;-63
2021/08/02 06:43:59;;;;;;;24.40;14.52;;;;;;;29.65;45.29;96476.34;5000577;28;20587;-68
2021/08/02 06:46:26;;;;;;;23.60;15.27;;;;;;;30.31;44.46;96579.56;4997819;28;20045;-61
2021/08/02 06:48:52;;;;;;;21.70;15.18;;;;;;;30.72;44.60;96589.34;5004464;28;20045;-68
2021/08/02 06:51:22;;;;;;;17.42;14.68;;;;;;;30.58;43.72;96541.72;5007534;28;20530;-63
2021/08/02 06:53:49;;;;;;;26.10;14.23;;;;;;;31.05;44.11;96585.03;5000761;28;20428;-70
2021/08/02 06:56:15;;;;;;;20.75;14.30;;;;;;;31.16;43.60;96579.31;4991397;28;20053;-60
2021/08/02 06:58:42;;;;;;;30.05;14.45;;;;;;;30.90;43.74;96483.03;4996330;28;20060;-63
2021/08/02 07:01:09;;;;;;;18.00;14.30;;;;;;;31.74;42.37;96584.06;5001619;28;20054;-63
2021/08/02 07:03:36;;;;;;;21.05;13.50;;;;;;;32.07;41.92;96573.31;5003993;28;20119;-65
2021/08/02 07:06:03;;;;;;;20.52;14.25;;;;;;;31.71;41.80;96562.19;5000395;28;20153;-61
2021/08/02 07:08:30;;;;;;;18.10;14.27;;;;;;;31.71;41.81;96565.03;5008052;28;20239;-62
2021/08/02 07:10:56;;;;;;;18.00;14.30;;;;;;;31.77;41.16;96554.34;5012655;28;20056;-68
2021/08/02 07:13:23;;;;;;;25.38;13.63;;;;;;;31.52;41.95;96498.16;5011121;28;20077;-60
2021/08/02 07:15:50;;;;;;;22.13;13.35;;;;;;;31.78;41.17;96481.41;4993229;28;20062;-67
2021/08/02 07:18:20;;;;;;;23.98;13.85;;;;;;;32.06;41.22;96480.03;4983364;28;20352;-68
2021/08/02 07:20:50;;;;;;;18.80;14.52;;;;;;;32.55;41.11;96554.97;4984184;28;20053;-68
2021/08/02 07:23:17;;;;;;;22.02;14.25;;;;;;;32.54;41.56;96565.63;4981928;28;20054;-65
2021/08/02 07:25:44;;;;;;;23.15;14.35;;;;;;;31.37;42.28;96480.44;4984308;28;20133;-66
2021/08/02 07:28:11;;;;;;;22.52;14.68;;;;;;;31.13;42.43;96460.91;4989455;28;20572;-64
2021/08/02 07:30:38;;;;;;;20.48;13.68;;;;;;;32.00;41.84;96561.63;4998163;28;20060;-68
2021/08/02 07:33:04;;;;;;;19.17;15.13;;;;;;;32.09;40.92;96558.50;5006650;28;20053;-68
2021/08/02 07:35:31;;;;;;;19.63;12.80;;;;;;;31.90;40.20;96474.38;5006025;28;20050;-69
2021/08/02 07:37:58;;;;;;;19.73;14.57;;;;;;;32.33;39.62;96510.69;4987547;28;20062;-69
2021/08/02 07:40:25;;;;;;;17.48;12.98;;;;;;;32.07;39.25;96463.63;4992571;28;20052;-68
2021/08/02 07:42:52;;;;;;;18.13;13.60;;;;;;;32.89;39.27;96562.88;4987577;28;20587;-65
2021/08/02 07:45:18;;;;;;;18.17;13.40;;;;;;;32.41;40.00;96498.72;4987405;28;20050;-65
2021/08/02 07:47:45;;;;;;;22.08;14.65;;;;;;;32.05;40.65;96512.91;4988402;28;20054;-61
2021/08/02 07:50:12;;;;;;;20.83;13.77;;;;;;;32.11;39.99;96481.31;4992849;28;20432;-66
2021/08/02 07:52:39;;;;;;;18.90;13.35;;;;;;;32.69;39.34;96539.50;5005403;28;20054;-63
2021/08/02 07:55:07;;;;;;;18.08;13.90;;;;;;;32.89;39.56;96545.66;4994414;28;20125;-66
2021/08/02 07:57:35;;;;;;;18.35;13.85;;;;;;;33.04;39.54;96505.88;5000006;28;20069;-61
2021/08/02 08:00:04;;;;;;;22.17;14.07;;;;;;;33.46;38.38;96525.44;5004874;28;20058;-65
2021/08/02 08:02:31;;;;;;;20.13;14.82;;;;;;;33.83;38.16;96538.41;4992390;28;20140;-61
2021/08/02 08:04:58;;;;;;;54.95;49.15;;;;;;;33.42;37.62;96455.19;4998600;28;20053;-63
2021/08/02 08:07:25;;;;;;;17.30;13.48;;;;;;;33.99;36.52;96531.75;4991577;28;20061;-65
2021/08/02 08:09:51;;;;;;;20.35;12.75;;;;;;;34.08;37.16;96525.63;5004526;28;20054;-66
2021/08/02 08:12:18;;;;;;;17.55;12.57;;;;;;;33.45;36.74;96428.31;5000213;28;20057;-64
2021/08/02 08:14:45;;;;;;;25.02;13.10;;;;;;;32.29;37.70;96340.25;4997759;28;20060;-61
2021/08/02 08:17:12;;;;;;;19.30;11.40;;;;;;;33.84;37.22;96502.59;4997406;28;20057;-66
2021/08/02 08:19:38;;;;;;;20.35;12.90;;;;;;;33.96;36.66;96489.66;5001398;28;20058;-67
2021/08/02 08:22:05;;;;;;;23.40;13.55;;;;;;;33.99;36.43;96454.13;5002425;28;20056;-62
2021/08/02 08:24:32;;;;;;;23.02;12.68;;;;;;;34.27;36.06;96477.56;4997102;28;20425;-66
2021/08/02 08:26:59;;;;;;;18.00;12.15;;;;;;;34.64;36.48;96509.25;4991675;28;20429;-68
2021/08/02 08:29:26;;;;;;;21.33;13.15;;;;;;;34.51;35.65;96503.44;4992068;28;20056;-63
2021/08/02 08:31:53;;;;;;;19.88;13.88;;;;;;;34.64;36.15;96491.97;4991405;28;20552;-65
2021/08/02 08:34:20;;;;;;;19.70;13.05;;;;;;;34.17;36.15;96502.25;4992454;28;20050;-62
2021/08/02 08:36:47;;;;;;;21.52;13.25;;;;;;;32.91;36.45;96273.22;4994556;28;20145;-65
2021/08/02 08:39:13;;;;;;;19.10;12.18;;;;;;;34.70;35.90;96493.47;4992332;28;20125;-64
2021/08/02 08:41:41;;;;;;;20.33;13.45;;;;;;;34.15;35.75;96392.72;4989398;28;20077;-75
2021/08/02 08:44:08;;;;;;;24.42;15.80;;;;;;;34.70;35.78;96452.38;4996424;28;20076;-67
2021/08/02 08:46:36;;;;;;;24.50;14.50;;;;;;;35.14;36.00;96486.28;5005646;28;20054;-65
2021/08/02 08:49:03;;;;;;;19.80;12.07;;;;;;;35.05;35.22;96450.03;4995707;28;20054;-64
2021/08/02 08:51:32;;;;;;;15.70;12.05;;;;;;;34.43;35.94;96496.72;4986642;28;20201;-67
2021/08/02 08:53:59;;;;;;;16.70;12.65;;;;;;;34.32;35.13;96387.53;4990328;28;20374;-66
2021/08/02 08:56:25;;;;;;;19.80;12.90;;;;;;;33.93;35.26;96349.91;5004944;28;20042;-62
2021/08/02 08:58:52;;;;;;;17.20;13.23;;;;;;;34.27;36.07;96440.16;4991757;28;20066;-65
2021/08/02 09:01:26;;;;;;;18.98;13.10;;;;;;;34.44;35.53;96432.09;4986216;28;20046;-64
2021/08/02 09:03:54;;;;;;;18.02;13.18;;;;;;;35.05;35.38;96466.53;4995701;28;20484;-66
2021/08/02 09:06:22;;;;;;;15.23;11.52;;;;;;;35.01;34.92;96396.97;4991307;28;20054;-63
2021/08/02 09:08:49;;;;;;;25.00;14.30;;;;;;;35.69;33.93;96453.66;4988097;28;20072;-65
2021/08/02 09:11:20;;;;;;;18.25;12.27;;;;;;;36.00;33.85;96452.00;4993949;28;20054;-70
2021/08/02 09:13:48;;;;;;;19.38;13.15;;;;;;;36.33;33.39;96452.13;4987340;28;20050;-61
2021/08/02 09:16:25;;;;;;;22.30;14.65;;;;;;;36.16;33.52;96448.81;4994059;28;20137;-64
2021/08/02 09:19:03;;;;;;;18.98;13.73;;;;;;;35.67;34.20;96435.34;4986539;28;20066;-62
2021/08/02 09:21:44;;;;;;;21.40;14.27;;;;;;;36.19;33.41;96424.59;5001787;28;20052;-63
2021/08/02 09:24:11;;;;;;;22.67;14.57;;;;;;;36.63;33.48;96456.75;5003851;28;20049;-64
2021/08/02 09:26:40;;;;;;;25.17;14.18;;;;;;;36.29;33.53;96388.19;5002935;28;20413;-62
2021/08/02 09:29:10;;;;;;;17.90;13.05;;;;;;;36.20;33.15;96448.47;5003122;28;20053;-63
2021/08/02 09:31:46;;;;;;;14.02;11.40;;;;;;;35.64;34.16;96437.22;5004724;28;20057;-63
2021/08/02 09:34:13;;;;;;;21.60;13.38;;;;;;;35.41;34.65;96394.97;5005069;28;20053;-63
2021/08/02 09:36:44;;;;;;;17.55;13.77;;;;;;;36.07;33.57;96434.84;5004788;28;20049;-64
2021/08/02 09:39:14;;;;;;;21.92;13.85;;;;;;;36.08;33.63;96351.94;4997010;28;20460;-66
2021/08/02 09:41:42;;;;;;;22.98;14.88;;;;;;;36.36;33.30;96335.59;4987413;28;20056;-63
2021/08/02 09:44:18;;;;;;;19.13;14.48;;;;;;;37.10;32.33;96420.69;5008687;28;20049;-66
2021/08/02 09:46:56;;;;;;;19.30;13.77;;;;;;;37.08;32.01;96434.16;5020850;28;20538;-64
2021/08/02 09:49:23;;;;;;;21.77;14.48;;;;;;;37.27;31.97;96420.31;5003678;28;20045;-65
2021/08/02 09:51:51;;;;;;;22.58;14.23;;;;;;;37.60;32.00;96410.75;4987029;28;20505;-62
2021/08/02 09:54:28;;;;;;;22.65;13.13;;;;;;;37.89;31.15;96406.56;4987511;28;20099;-65
2021/08/02 09:56:55;;;;;;;24.58;12.50;;;;;;;37.96;30.19;96405.03;4984319;28;20509;-63
2021/08/02 09:59:23;;;;;;;18.83;11.43;;;;;;;37.69;30.33;96402.38;4984706;28;20065;-63
2021/08/02 10:01:51;;;;;;;20.17;12.68;;;;;;;37.41;30.71;96402.34;4985008;28;20054;-67
2021/08/02 10:04:18;;;;;;;17.73;13.13;;;;;;;37.40;31.60;96405.78;5002717;28;20460;-67
2021/08/02 10:06:46;;;;;;;19.15;12.30;;;;;;;36.57;32.00;96383.91;5011837;28;20602;-65
2021/08/02 10:09:14;;;;;;;17.15;11.55;;;;;;;37.01;31.60;96395.19;5016998;28;20073;-62
2021/08/02 10:11:41;;;;;;;23.70;11.70;;;;;;;37.12;30.01;96389.13;4990785;28;20058;-68
2021/08/02 10:14:11;;;;;;;21.67;12.35;;;;;;;37.23;30.48;96336.09;4986189;28;20152;-66
2021/08/02 10:16:43;;;;;;;24.55;11.73;;;;;;;37.62;28.48;96373.38;4986959;28;20521;-65
2021/08/02 10:19:13;;;;;;;25.20;13.67;;;;;;;38.11;28.36;96365.41;4983304;28;20501;-63
2021/08/02 10:21:47;;;;;;;23.30;10.52;;;;;;;38.68;27.24;96375.50;4985079;28;20403;-68
2021/08/02 10:24:16;;;;;;;25.52;11.10;;;;;;;39.03;26.24;96363.03;4982649;28;20053;-65
2021/08/02 10:26:57;;;;;;;27.98;10.65;;;;;;;39.50;24.96;96350.91;5000410;28;20050;-62
2021/08/02 10:29:36;;;;;;;30.20;10.55;;;;;;;38.43;23.71;96168.88;5003709;28;20057;-65
2021/08/02 10:32:03;;;;;;;24.08;9.38;;;;;;;39.90;20.69;96353.94;5004534;28;20061;-62
2021/08/02 10:34:29;;;;;;;31.10;8.98;;;;;;;40.14;19.44;96347.47;4986977;28;20336;-67
2021/08/02 10:37:02;;;;;;;26.35;8.85;;;;;;;39.83;18.45;96273.47;4981440;28;20038;-68
2021/08/02 10:39:30;;;;;;;33.80;8.75;;;;;;;40.21;18.49;96335.06;4989862;28;20054;-62
2021/08/02 10:42:04;;;;;;;31.20;8.45;;;;;;;40.03;18.82;96337.06;4982206;28;20522;-63
2021/08/02 10:44:35;;;;;;;36.67;8.27;;;;;;;39.15;17.87;96222.19;4984313;28;20508;-61
2021/08/02 10:47:05;;;;;;;34.13;8.95;;;;;;;39.59;18.52;96266.19;4982817;28;20517;-62
2021/08/02 10:49:32;;;;;;;24.58;8.60;;;;;;;40.26;18.95;96328.28;4981886;28;20128;-65
2021/08/02 10:52:00;;;;;;;35.05;8.65;;;;;;;40.55;18.70;96320.78;4988565;28;20085;-63
2021/08/02 10:54:37;;;;;;;29.52;9.35;;;;;;;40.58;18.93;96325.44;4990040;28;20057;-63
2021/08/02 10:57:12;;;;;;;26.85;8.80;;;;;;;40.30;16.38;96282.97;4986538;28;20057;-60
2021/08/02 10:59:39;;;;;;;29.67;8.70;;;;;;;40.48;17.47;96324.50;4984094;28;20058;-64
2021/08/02 11:02:11;;;;;;;20.80;8.15;;;;;;;40.49;17.56;96317.34;4981995;28;20141;-63
2021/08/02 11:04:39;;;;;;;19.87;8.47;;;;;;;40.16;18.03;96283.78;5004348;28;20076;-64
2021/08/02 11:07:09;;;;;;;22.73;9.82;;;;;;;40.51;17.94;96332.03;4999144;28;20129;-62
2021/08/02 11:09:37;;;;;;;27.75;9.15;;;;;;;39.59;17.69;96210.31;4990449;28;20130;-66
2021/08/02 11:12:11;;;;;;;20.35;9.13;;;;;;;40.21;17.45;96297.31;5009851;28;20084;-63
2021/08/02 11:14:52;;;;;;;25.40;9.02;;;;;;;40.20;17.91;96313.22;5002997;28;20461;-70
2021/08/02 11:17:23;;;;;;;25.40;9.65;;;;;;;40.29;17.48;96315.50;5002597;28;20137;-65
2021/08/02 11:20:11;;;;;;;20.20;8.10;;;;;;;40.43;17.41;96314.66;5003437;28;20111;-64
2021/08/02 11:22:49;;;;;;;28.92;8.63;;;;;;;40.36;17.38;96303.06;4983225;28;20058;-66
2021/08/02 11:25:22;;;;;;;25.35;8.52;;;;;;;40.54;17.04;96307.63;4984429;28;20074;-62
2021/08/02 11:27:49;;;;;;;;;;;;;;;40.55;17.23;96303.34;4982253;28;20061;-67
2021/08/02 11:30:16;;;;;;;31.88;8.52;;;;;;;40.72;16.77;96291.88;4984761;28;19926;-66